Time;durP1;ratioP1;P1;durP2;ratioP2;P2;SDS_P1;SDS_P2;PMS_P1;PMS_P2;Temp;Humidity;BMP_temperature;BMP_pressure;BME280_temperature;BME280_humidity;BME280_pressure;Samples;Min_cycle;Max_cycle;Signal;HPM_P1;HPM_P2
2023/07/07 00:01:15;;;;;;;3.50;1.70;;;;;;;17.13;57.09;100243.19;5043462;28;20028;-75
2023/07/07 00:03:41;;;;;;;3.55;1.80;;;;;;;17.15;56.83;100240.94;5043851;28;20415;-74
2023/07/07 00:06:06;;;;;;;3.57;2.70;;;;;;;17.19;56.50;100235.66;5043599;28;20037;-74
2023/07/07 00:08:31;;;;;;;3.83;2.23;;;;;;;17.11;56.43;100239.03;5043142;28;21205;-75
2023/07/07 00:10:58;;;;;;;4.30;3.03;;;;;;;17.09;56.65;100233.84;5043746;28;20277;-75
2023/07/07 00:13:24;;;;;;;6.53;4.85;;;;;;;17.06;56.60;100237.22;5043445;28;20265;-75
2023/07/07 00:15:49;;;;;;;6.40;3.22;;;;;;;16.95;57.13;100244.78;5043221;28;21155;-75
2023/07/07 00:18:26;;;;;;;4.07;1.83;;;;;;;16.95;57.38;100250.28;5043061;28;20094;-75
2023/07/07 00:20:51;;;;;;;6.40;4.00;;;;;;;17.00;57.11;100239.19;5043716;28;20261;-75
2023/07/07 00:23:17;;;;;;;8.82;8.23;;;;;;;17.05;56.97;100243.81;5043062;28;20040;-75
2023/07/07 00:25:42;;;;;;;10.23;5.77;;;;;;;17.03;57.76;100248.81;5043143;28;20043;-74
2023/07/07 00:28:07;;;;;;;4.60;4.20;;;;;;;16.96;57.66;100240.94;5042809;28;20262;-75
2023/07/07 00:30:32;;;;;;;6.97;6.10;;;;;;;17.00;57.64;100244.69;5043257;28;20278;-74
2023/07/07 00:32:58;;;;;;;4.50;2.87;;;;;;;17.03;57.44;100240.53;5043494;28;20118;-75
2023/07/07 00:35:23;;;;;;;5.23;2.40;;;;;;;16.97;57.89;100247.22;5043081;28;20120;-75
2023/07/07 00:37:48;;;;;;;6.37;2.67;;;;;;;17.01;57.54;100249.09;5042914;28;20357;-75
2023/07/07 00:40:13;;;;;;;8.53;2.90;;;;;;;17.01;57.42;100248.28;5042444;28;20491;-75
2023/07/07 00:42:39;;;;;;;3.20;1.83;;;;;;;17.07;57.45;100244.34;5043450;28;20044;-74
2023/07/07 00:45:16;;;;;;;5.80;2.77;;;;;;;16.97;57.14;100247.22;5043088;28;20262;-74
2023/07/07 00:48:01;;;;;;;4.53;2.00;;;;;;;16.98;57.45;100243.38;5042913;28;20371;-75
2023/07/07 00:50:31;;;;;;;3.67;1.90;;;;;;;16.99;57.78;100236.75;5042330;28;20312;-75
2023/07/07 00:52:56;;;;;;;3.30;1.50;;;;;;;16.97;58.07;100239.78;5043324;28;20359;-75
2023/07/07 00:55:40;;;;;;;4.93;1.67;;;;;;;16.99;57.23;100239.50;5042605;28;20106;-74
2023/07/07 00:58:10;;;;;;;5.07;2.35;;;;;;;17.05;57.38;100241.06;5042759;28;20063;-72
2023/07/07 01:00:38;;;;;;;5.05;2.00;;;;;;;17.17;57.22;100231.59;5043307;28;20036;-75
2023/07/07 01:03:10;;;;;;;3.55;2.28;;;;;;;17.20;57.00;100242.00;5042669;28;20041;-75
2023/07/07 01:05:37;;;;;;;4.22;2.03;;;;;;;16.97;57.91;100233.47;5042715;28;20466;-75
2023/07/07 01:08:06;;;;;;;3.38;2.42;;;;;;;17.00;57.96;100233.69;5042381;28;20091;-75
2023/07/07 01:10:31;;;;;;;6.85;5.13;;;;;;;17.00;57.58;100241.16;5043027;28;20048;-75
2023/07/07 01:12:57;;;;;;;18.33;17.33;;;;;;;17.01;57.71;100245.53;5041275;28;20438;-75
2023/07/07 01:15:25;;;;;;;40.08;38.28;;;;;;;16.96;58.04;100235.41;5042764;28;20138;-75
2023/07/07 01:18:24;;;;;;;48.08;45.90;;;;;;;16.88;58.31;100242.38;5042706;28;20040;-75
2023/07/07 01:21:03;;;;;;;49.03;46.83;;;;;;;16.94;58.18;100239.56;5034401;28;20498;-75
2023/07/07 01:24:10;;;;;;;58.17;55.67;;;;;;;16.88;58.20;100236.88;5042337;28;20029;-75
2023/07/07 01:26:58;;;;;;;39.58;37.47;;;;;;;16.87;58.17;100232.50;5042282;28;20056;-74
2023/07/07 01:29:42;;;;;;;47.50;45.30;;;;;;;16.94;58.27;100228.56;5041974;28;20124;-75
2023/07/07 01:32:15;;;;;;;73.60;70.45;;;;;;;16.88;58.19;100231.38;5042424;28;20040;-74
2023/07/07 01:34:41;;;;;;;26.83;25.33;;;;;;;16.84;58.57;100229.53;5042655;28;20033;-75
2023/07/07 01:37:06;;;;;;;13.45;12.45;;;;;;;16.80;58.65;100240.31;5042623;28;20021;-75
2023/07/07 01:39:32;;;;;;;11.50;10.70;;;;;;;16.90;58.59;100237.41;5041884;28;20037;-75
2023/07/07 01:42:09;;;;;;;15.70;14.65;;;;;;;16.86;58.32;100239.09;5042826;28;20904;-75
2023/07/07 01:44:51;;;;;;;13.48;12.45;;;;;;;16.98;57.70;100238.69;5042453;28;20057;-75
2023/07/07 01:47:20;;;;;;;11.52;10.55;;;;;;;17.08;57.95;100239.66;5042405;28;20037;-75
2023/07/07 01:49:55;;;;;;;8.30;7.47;;;;;;;16.95;58.36;100247.53;5041896;28;20068;-75
2023/07/07 01:52:30;;;;;;;13.57;12.38;;;;;;;16.83;58.90;100238.88;5042450;28;20033;-75
2023/07/07 01:55:03;;;;;;;10.02;9.23;;;;;;;16.81;58.40;100230.94;5042801;28;20029;-74
2023/07/07 01:57:29;;;;;;;12.30;11.35;;;;;;;16.94;57.91;100234.06;5041945;28;20049;-76
2023/07/07 01:59:55;;;;;;;16.73;14.52;;;;;;;17.00;57.99;100235.63;5042528;28;21219;-75
2023/07/07 02:02:21;;;;;;;18.60;17.60;;;;;;;16.91;58.18;100228.03;5045837;28;20450;-74
2023/07/07 02:04:47;;;;;;;27.92;26.58;;;;;;;16.85;58.37;100229.22;5046364;28;20119;-75
2023/07/07 02:07:12;;;;;;;39.50;37.87;;;;;;;16.72;58.44;100221.69;5046336;28;20112;-72
2023/07/07 02:09:38;;;;;;;22.25;21.10;;;;;;;16.78;58.58;100224.06;5045035;28;20036;-72
2023/07/07 02:12:04;;;;;;;35.53;33.83;;;;;;;16.92;58.25;100228.88;5045548;28;20127;-71
2023/07/07 02:14:29;;;;;;;25.88;24.52;;;;;;;16.78;58.62;100228.78;5045539;28;20493;-73
2023/07/07 02:16:55;;;;;;;18.43;17.33;;;;;;;16.86;58.40;100221.78;5046199;28;20782;-75
2023/07/07 02:19:20;;;;;;;39.10;37.25;;;;;;;16.90;58.47;100222.84;5045104;28;20266;-76
2023/07/07 02:21:45;;;;;;;29.92;28.15;;;;;;;16.87;58.34;100224.25;5045860;28;20565;-75
2023/07/07 02:24:11;;;;;;;16.53;15.60;;;;;;;16.89;58.44;100223.94;5045440;28;20090;-75
2023/07/07 02:26:37;;;;;;;21.83;20.63;;;;;;;16.92;58.32;100232.41;5045216;28;20056;-74
2023/07/07 02:29:02;;;;;;;41.35;39.42;;;;;;;16.91;58.57;100230.78;5044901;28;20095;-74
2023/07/07 02:31:28;;;;;;;15.35;14.30;;;;;;;16.82;58.82;100231.75;5044983;28;20028;-76
2023/07/07 02:33:53;;;;;;;12.95;11.57;;;;;;;16.90;58.21;100234.66;5045239;28;20468;-75
2023/07/07 02:36:19;;;;;;;19.20;18.05;;;;;;;17.00;58.22;100232.88;5045255;28;20048;-75
2023/07/07 02:38:46;;;;;;;24.63;23.27;;;;;;;17.04;57.94;100233.94;5045161;28;20032;-75
2023/07/07 02:41:11;;;;;;;15.70;14.75;;;;;;;17.07;57.83;100230.56;5045285;28;20025;-75
2023/07/07 02:43:37;;;;;;;11.40;10.50;;;;;;;17.07;57.80;100229.75;5045064;28;20953;-76
2023/07/07 02:46:02;;;;;;;8.13;7.32;;;;;;;17.12;57.79;100230.53;5045415;28;20685;-74
2023/07/07 02:48:28;;;;;;;9.30;8.35;;;;;;;17.10;57.77;100224.47;5044960;28;20055;-75
2023/07/07 02:51:03;;;;;;;7.07;6.45;;;;;;;16.90;58.11;100225.59;5045177;28;20045;-75
2023/07/07 02:53:32;;;;;;;7.10;5.97;;;;;;;16.98;58.05;100226.84;5044997;28;20167;-75
2023/07/07 02:55:58;;;;;;;12.15;11.25;;;;;;;16.74;58.76;100230.47;5045042;28;20033;-75
2023/07/07 02:58:24;;;;;;;8.57;7.65;;;;;;;16.80;58.46;100240.31;5044176;28;20113;-75
2023/07/07 03:00:50;;;;;;;6.13;4.85;;;;;;;16.89;58.01;100235.78;5045075;28;20441;-75
2023/07/07 03:03:16;;;;;;;5.65;4.40;;;;;;;16.98;57.97;100232.38;5044401;28;20040;-75
2023/07/07 03:05:42;;;;;;;11.30;8.73;;;;;;;16.98;58.37;100237.88;5044603;28;20037;-74
2023/07/07 03:08:07;;;;;;;9.05;7.75;;;;;;;16.88;58.87;100247.09;5044487;28;20063;-74
2023/07/07 03:10:35;;;;;;;10.10;6.72;;;;;;;16.71;60.26;100242.06;5044509;28;20657;-74
2023/07/07 03:13:00;;;;;;;7.78;6.97;;;;;;;16.69;60.26;100240.44;5043968;28;20040;-75
2023/07/07 03:15:38;;;;;;;7.20;6.50;;;;;;;16.53;60.64;100236.22;5044282;28;20041;-75
2023/07/07 03:18:13;;;;;;;7.85;6.78;;;;;;;16.62;60.59;100239.16;5044662;28;20055;-75
2023/07/07 03:20:47;;;;;;;8.18;5.72;;;;;;;16.64;60.08;100237.72;5044486;28;20120;-74
2023/07/07 03:23:13;;;;;;;;;;;;;;;16.71;59.70;100239.31;5045132;28;20055;-74
2023/07/07 03:25:38;;;;;;;8.63;3.05;;;;;;;16.61;60.12;100246.59;5044151;28;19916;-75
2023/07/07 03:28:03;;;;;;;7.00;2.60;;;;;;;16.67;60.12;100245.41;5043959;28;20025;-74
2023/07/07 03:30:29;;;;;;;8.68;3.78;;;;;;;16.67;60.13;100248.16;5043912;28;20274;-75
2023/07/07 03:32:54;;;;;;;8.38;3.03;;;;;;;16.61;60.50;100254.84;5044108;28;20029;-75
2023/07/07 03:35:20;;;;;;;8.57;2.75;;;;;;;16.75;60.00;100257.72;5044305;28;20122;-75
2023/07/07 03:37:45;;;;;;;7.55;2.67;;;;;;;16.69;60.03;100256.13;5044267;28;20983;-74
2023/07/07 03:40:10;;;;;;;5.97;3.20;;;;;;;16.59;60.70;100259.84;5043738;28;20122;-75
2023/07/07 03:42:37;;;;;;;10.33;3.37;;;;;;;16.55;61.16;100254.09;5044175;28;20139;-75
2023/07/07 03:45:03;;;;;;;4.97;1.90;;;;;;;16.54;60.67;100255.19;5044180;28;20385;-74
2023/07/07 03:47:28;;;;;;;5.30;1.98;;;;;;;16.57;60.90;100259.31;5043538;28;20033;-74
2023/07/07 03:49:53;;;;;;;6.95;3.13;;;;;;;16.68;60.35;100255.31;5043579;28;20029;-75
2023/07/07 03:52:18;;;;;;;5.17;2.33;;;;;;;16.73;60.33;100261.84;5043565;28;20041;-74
2023/07/07 03:54:44;;;;;;;7.87;2.90;;;;;;;16.60;61.12;100264.22;5044254;28;20036;-74
2023/07/07 03:57:10;;;;;;;4.95;2.85;;;;;;;16.61;60.98;100260.34;5043744;28;20556;-75
2023/07/07 03:59:36;;;;;;;13.68;3.53;;;;;;;16.73;60.76;100264.63;5043268;28;20126;-74
2023/07/07 04:02:01;;;;;;;5.82;3.05;;;;;;;16.81;60.48;100263.97;5043700;28;20482;-74
2023/07/07 04:04:27;;;;;;;6.50;2.88;;;;;;;16.86;60.27;100266.63;5043444;28;20043;-74
2023/07/07 04:06:54;;;;;;;7.63;2.60;;;;;;;16.91;60.02;100269.34;5043463;28;20131;-75
2023/07/07 04:09:20;;;;;;;6.15;2.90;;;;;;;16.90;60.19;100273.19;5042978;28;20067;-74
2023/07/07 04:11:45;;;;;;;7.05;3.90;;;;;;;16.73;60.86;100273.69;5043576;28;20611;-74
2023/07/07 04:14:10;;;;;;;5.40;3.33;;;;;;;16.68;61.32;100271.81;5042916;28;20057;-75
2023/07/07 04:16:35;;;;;;;6.53;3.53;;;;;;;16.66;61.64;100282.31;5043321;28;20036;-74
2023/07/07 04:19:01;;;;;;;6.37;2.40;;;;;;;16.71;61.54;100280.59;5042956;28;20475;-74
2023/07/07 04:21:29;;;;;;;7.47;2.97;;;;;;;16.88;61.06;100275.41;5043059;28;20285;-74
2023/07/07 04:23:56;;;;;;;5.50;3.13;;;;;;;16.84;61.47;100271.63;5043287;28;20033;-75
2023/07/07 04:26:23;;;;;;;8.00;3.15;;;;;;;16.92;60.56;100272.91;5043259;28;20033;-75
2023/07/07 04:28:53;;;;;;;7.88;3.85;;;;;;;16.85;61.07;100275.19;5042900;28;20033;-75
2023/07/07 04:31:23;;;;;;;7.20;3.00;;;;;;;16.69;62.03;100284.47;5043142;28;21187;-75
2023/07/07 04:33:48;;;;;;;8.80;3.40;;;;;;;16.65;62.47;100277.09;5043337;28;20037;-75
2023/07/07 04:36:14;;;;;;;5.60;2.72;;;;;;;16.60;63.14;100280.72;5043192;28;20596;-75
2023/07/07 04:38:40;;;;;;;8.45;3.17;;;;;;;16.62;63.08;100278.50;5042766;28;20029;-72
2023/07/07 04:41:17;;;;;;;5.75;2.28;;;;;;;16.53;63.38;100274.75;5043183;28;20087;-71
2023/07/07 04:43:45;;;;;;;6.93;3.08;;;;;;;16.56;63.89;100274.16;5042943;28;20469;-72
2023/07/07 04:46:14;;;;;;;10.43;3.45;;;;;;;16.67;63.64;100280.38;5042661;28;20598;-71
2023/07/07 04:48:39;;;;;;;6.28;2.67;;;;;;;16.86;63.06;100277.66;5042142;28;20043;-72
2023/07/07 04:51:07;;;;;;;8.63;3.47;;;;;;;16.96;62.48;100275.91;5042816;28;20033;-72
2023/07/07 04:53:32;;;;;;;5.47;2.53;;;;;;;16.95;61.83;100266.81;5042904;28;20044;-72
2023/07/07 04:55:59;;;;;;;8.77;3.25;;;;;;;16.91;62.95;100272.09;5042731;28;20111;-71
2023/07/07 04:58:26;;;;;;;5.82;2.75;;;;;;;16.94;63.35;100276.19;5041909;28;20045;-72
2023/07/07 05:01:17;;;;;;;6.53;2.80;;;;;;;17.06;62.81;100281.28;5042549;28;20509;-71
2023/07/07 05:03:43;;;;;;;8.27;3.40;;;;;;;17.02;63.92;100282.97;5042637;28;20051;-72
2023/07/07 05:06:10;;;;;;;6.38;3.05;;;;;;;17.12;63.50;100284.78;5042452;28;20040;-72
2023/07/07 05:08:38;;;;;;;5.50;2.70;;;;;;;17.14;63.67;100277.06;5042116;28;20056;-71
2023/07/07 05:11:05;;;;;;;6.07;2.45;;;;;;;17.10;64.01;100273.22;5042328;28;20048;-72
2023/07/07 05:13:31;;;;;;;7.40;3.15;;;;;;;17.15;63.96;100278.69;5042572;28;20434;-72
2023/07/07 05:16:09;;;;;;;10.02;4.55;;;;;;;17.34;63.44;100277.88;5042181;28;20270;-71
2023/07/07 05:18:34;;;;;;;5.93;3.13;;;;;;;17.39;62.92;100273.09;5042216;28;20033;-72
2023/07/07 05:20:59;;;;;;;7.18;3.05;;;;;;;17.45;62.33;100284.06;5042517;28;20044;-72
2023/07/07 05:23:25;;;;;;;7.45;3.33;;;;;;;17.35;63.32;100283.09;5042504;28;20044;-72
2023/07/07 05:25:51;;;;;;;7.10;2.97;;;;;;;17.41;63.17;100280.28;5042616;28;20124;-72
2023/07/07 05:28:17;;;;;;;7.18;2.80;;;;;;;17.47;63.14;100284.59;5041733;28;20095;-73
2023/07/07 05:30:43;;;;;;;4.68;2.30;;;;;;;17.60;62.45;100280.25;5042873;28;20041;-73
2023/07/07 05:33:09;;;;;;;7.85;2.85;;;;;;;17.74;61.29;100283.03;5042228;28;20129;-72
2023/07/07 05:35:34;;;;;;;9.80;2.03;;;;;;;17.69;61.95;100283.97;5043854;28;20040;-72
2023/07/07 05:38:00;;;;;;;7.53;2.42;;;;;;;17.71;61.72;100280.91;5046265;28;20179;-75
2023/07/07 05:40:29;;;;;;;4.72;2.15;;;;;;;17.78;61.31;100273.06;5045860;28;20032;-75
2023/07/07 05:42:54;;;;;;;5.50;2.10;;;;;;;17.88;60.94;100279.53;5046480;28;20171;-75
2023/07/07 05:45:23;;;;;;;7.75;2.58;;;;;;;17.96;61.21;100278.81;5046216;28;20132;-75
2023/07/07 05:47:48;;;;;;;5.97;2.88;;;;;;;17.95;61.68;100274.44;5046411;28;20037;-73
2023/07/07 05:50:13;;;;;;;5.20;2.40;;;;;;;17.97;61.53;100274.97;5045391;28;20041;-72
2023/07/07 05:52:38;;;;;;;9.97;2.57;;;;;;;18.04;60.75;100275.38;5046751;28;20033;-72
2023/07/07 05:55:05;;;;;;;6.37;2.30;;;;;;;18.11;61.41;100277.75;5046041;28;20458;-74
2023/07/07 05:57:30;;;;;;;4.78;1.92;;;;;;;18.07;61.52;100283.06;5045606;28;20425;-74
2023/07/07 05:59:56;;;;;;;4.03;1.85;;;;;;;18.08;61.94;100272.84;5044889;28;20296;-72
2023/07/07 06:02:21;;;;;;;4.30;1.73;;;;;;;18.04;62.25;100275.38;5045642;28;20083;-72
2023/07/07 06:04:46;;;;;;;5.18;2.30;;;;;;;18.08;61.21;100278.38;5045681;28;20036;-72
2023/07/07 06:07:11;;;;;;;3.90;1.83;;;;;;;18.14;61.69;100271.63;5045835;28;20033;-72
2023/07/07 06:09:37;;;;;;;4.47;1.97;;;;;;;18.15;61.75;100269.66;5045154;28;20254;-72
2023/07/07 06:12:03;;;;;;;3.47;1.67;;;;;;;18.20;61.40;100277.91;5045775;28;20281;-73
2023/07/07 06:14:28;;;;;;;6.10;2.00;;;;;;;18.25;61.20;100275.03;5045899;28;20067;-72
2023/07/07 06:16:54;;;;;;;3.53;1.35;;;;;;;18.25;61.06;100276.97;5045723;28;20033;-71
2023/07/07 06:19:19;;;;;;;7.90;2.20;;;;;;;18.27;61.44;100281.06;5044947;28;20567;-72
2023/07/07 06:21:44;;;;;;;4.10;1.90;;;;;;;18.37;61.03;100276.47;5045538;28;20272;-72
2023/07/07 06:24:10;;;;;;;7.10;2.45;;;;;;;18.43;61.18;100286.28;5045356;28;20041;-72
2023/07/07 06:26:35;;;;;;;4.60;2.20;;;;;;;18.47;60.94;100287.31;5045199;28;20078;-74
2023/07/07 06:29:00;;;;;;;5.87;3.20;;;;;;;18.50;60.72;100283.13;5045128;28;20265;-72
2023/07/07 06:31:26;;;;;;;6.70;2.80;;;;;;;18.54;60.37;100296.03;5045052;28;20273;-72
2023/07/07 06:33:52;;;;;;;5.22;2.45;;;;;;;18.58;60.54;100292.63;5044824;28;20029;-74
2023/07/07 06:36:17;;;;;;;4.83;1.70;;;;;;;18.59;61.64;100286.81;5044593;28;20044;-72
2023/07/07 06:38:43;;;;;;;5.13;2.90;;;;;;;18.60;60.22;100296.75;5044560;28;20032;-71
2023/07/07 06:41:12;;;;;;;8.38;3.17;;;;;;;18.61;60.52;100300.31;5044709;28;20048;-73
2023/07/07 06:43:38;;;;;;;8.90;3.17;;;;;;;18.63;60.89;100287.81;5044034;28;20037;-74
2023/07/07 06:46:03;;;;;;;6.13;2.97;;;;;;;18.64;60.57;100297.75;5044530;28;20642;-73
2023/07/07 06:48:28;;;;;;;10.57;9.77;;;;;;;18.70;60.35;100295.72;5044601;28;20269;-72
2023/07/07 06:50:53;;;;;;;10.60;9.80;;;;;;;18.80;59.99;100294.69;5044459;28;20041;-75
2023/07/07 06:53:19;;;;;;;8.03;3.07;;;;;;;18.87;60.14;100299.81;5044362;28;20028;-73
2023/07/07 06:55:44;;;;;;;9.07;3.33;;;;;;;18.88;60.54;100293.13;5044565;28;20258;-72
2023/07/07 06:58:13;;;;;;;8.10;3.15;;;;;;;18.93;60.95;100300.50;5044073;28;20033;-75
2023/07/07 07:00:40;;;;;;;6.22;3.72;;;;;;;19.00;60.28;100310.00;5044052;28;20037;-76
2023/07/07 07:03:05;;;;;;;7.50;4.78;;;;;;;19.03;60.11;100294.78;5045314;28;20040;-75
2023/07/07 07:05:31;;;;;;;8.47;7.67;;;;;;;19.08;59.90;100302.94;5044279;28;20040;-74
2023/07/07 07:07:56;;;;;;;16.35;9.60;;;;;;;19.13;59.75;100302.84;5044734;28;20258;-73
2023/07/07 07:10:21;;;;;;;11.33;8.00;;;;;;;19.21;59.55;100306.00;5044140;28;20043;-72
2023/07/07 07:12:48;;;;;;;14.80;8.20;;;;;;;19.28;59.60;100308.38;5044000;28;20373;-72
2023/07/07 07:15:13;;;;;;;17.08;10.63;;;;;;;19.31;59.59;100303.03;5044269;28;20059;-74
2023/07/07 07:17:39;;;;;;;9.82;9.05;;;;;;;19.37;59.45;100306.47;5044469;28;20037;-72
2023/07/07 07:20:06;;;;;;;9.75;3.40;;;;;;;19.41;59.86;100301.16;5043938;28;20483;-72
2023/07/07 07:22:31;;;;;;;8.45;7.07;;;;;;;19.51;60.03;100300.09;5044051;28;20115;-71
2023/07/07 07:24:57;;;;;;;7.70;4.70;;;;;;;19.56;59.62;100292.50;5044357;28;20819;-72
2023/07/07 07:27:22;;;;;;;16.97;11.10;;;;;;;19.63;59.20;100296.78;5043869;28;20033;-73
2023/07/07 07:29:47;;;;;;;5.30;2.73;;;;;;;19.71;59.10;100301.53;5043953;28;20036;-73
2023/07/07 07:32:13;;;;;;;6.43;3.22;;;;;;;19.72;59.09;100297.66;5044197;28;20254;-73
2023/07/07 07:34:38;;;;;;;12.83;6.27;;;;;;;19.74;59.32;100300.94;5044051;28;20029;-72
2023/07/07 07:37:04;;;;;;;7.90;6.73;;;;;;;19.80;58.95;100304.38;5044093;28;20316;-73
2023/07/07 07:39:29;;;;;;;9.57;3.88;;;;;;;19.82;58.39;100305.72;5043179;28;20384;-73
2023/07/07 07:41:55;;;;;;;5.90;4.28;;;;;;;19.87;58.37;100304.75;5043707;28;20047;-73
2023/07/07 07:44:22;;;;;;;4.50;3.72;;;;;;;19.89;58.00;100301.69;5043792;28;20037;-73
2023/07/07 07:46:50;;;;;;;8.02;3.47;;;;;;;19.95;58.14;100304.00;5043982;28;20128;-71
2023/07/07 07:49:16;;;;;;;5.72;3.92;;;;;;;20.00;58.32;100296.69;5042873;28;20055;-72
2023/07/07 07:51:41;;;;;;;8.10;4.50;;;;;;;20.04;58.04;100306.00;5043565;28;20028;-71
2023/07/07 07:54:09;;;;;;;6.90;5.13;;;;;;;20.09;58.62;100303.16;5043756;28;20113;-72
2023/07/07 07:56:35;;;;;;;5.68;4.38;;;;;;;20.12;58.23;100312.75;5043631;28;20037;-72
2023/07/07 07:59:00;;;;;;;7.35;4.88;;;;;;;20.15;58.20;100318.50;5043134;28;20036;-73
2023/07/07 08:01:25;;;;;;;7.20;5.05;;;;;;;20.23;57.84;100310.53;5043414;28;20029;-73
2023/07/07 08:03:51;;;;;;;6.28;5.68;;;;;;;20.29;57.85;100317.56;5044053;28;20045;-73
2023/07/07 08:06:16;;;;;;;9.23;8.52;;;;;;;20.35;57.84;100319.06;5043391;28;20110;-74
2023/07/07 08:08:42;;;;;;;4.15;3.25;;;;;;;20.38;57.14;100323.16;5043449;28;20124;-73
2023/07/07 08:11:12;;;;;;;6.70;4.20;;;;;;;20.42;56.76;100321.41;5043338;28;20091;-73
2023/07/07 08:13:38;;;;;;;15.43;14.52;;;;;;;20.47;56.08;100324.00;5043281;28;20277;-73
2023/07/07 08:16:03;;;;;;;12.93;11.98;;;;;;;20.56;55.10;100321.28;5043643;28;20029;-72
2023/07/07 08:18:28;;;;;;;4.50;2.92;;;;;;;20.71;54.56;100319.22;5042803;28;20037;-72
2023/07/07 08:20:54;;;;;;;4.80;1.20;;;;;;;20.77;54.01;100326.25;5043368;28;20044;-72
2023/07/07 08:23:19;;;;;;;3.92;1.63;;;;;;;20.86;52.87;100324.31;5043015;28;20626;-72
2023/07/07 08:25:45;;;;;;;5.50;1.80;;;;;;;20.90;50.87;100329.22;5043021;28;20029;-72
2023/07/07 08:28:11;;;;;;;4.30;1.08;;;;;;;20.98;49.53;100331.22;5042886;28;20120;-72
2023/07/07 08:30:36;;;;;;;5.50;1.83;;;;;;;21.08;50.25;100330.94;5043174;28;20040;-72
2023/07/07 08:33:02;;;;;;;3.80;1.50;;;;;;;21.09;48.43;100332.53;5043270;28;20028;-72
2023/07/07 08:35:27;;;;;;;3.88;1.40;;;;;;;21.10;47.32;100328.66;5043149;28;20040;-72
2023/07/07 08:37:52;;;;;;;3.70;1.17;;;;;;;21.21;46.97;100333.88;5043170;28;20625;-72
2023/07/07 08:40:23;;;;;;;5.10;1.20;;;;;;;21.32;46.43;100329.66;5042228;28;20037;-72
2023/07/07 08:42:49;;;;;;;2.83;1.77;;;;;;;21.38;46.36;100332.28;5043309;28;20032;-71
2023/07/07 08:45:19;;;;;;;4.07;1.50;;;;;;;21.48;46.10;100320.84;5042781;28;20078;-71
2023/07/07 08:47:48;;;;;;;3.08;1.52;;;;;;;21.53;44.91;100323.47;5042667;28;20059;-72
2023/07/07 08:50:22;;;;;;;4.18;1.48;;;;;;;21.73;44.94;100325.91;5042253;28;20037;-73
2023/07/07 08:52:57;;;;;;;10.23;1.92;;;;;;;21.79;45.00;100314.31;5043112;28;20041;-73
2023/07/07 08:56:00;;;;;;;4.50;1.75;;;;;;;21.92;45.39;100317.28;5042608;28;20090;-73
2023/07/07 08:58:46;;;;;;;5.32;1.63;;;;;;;21.99;44.81;100313.97;5015556;28;20048;-72
2023/07/07 09:01:28;;;;;;;3.58;1.40;;;;;;;22.08;44.76;100319.53;5042693;28;20047;-73
2023/07/07 09:04:18;;;;;;;7.65;1.13;;;;;;;22.15;45.19;100315.09;5042759;28;20040;-72
2023/07/07 09:06:59;;;;;;;7.03;2.45;;;;;;;22.23;45.76;100309.88;5042727;28;20083;-75
2023/07/07 09:10:12;;;;;;;4.05;1.23;;;;;;;22.28;45.07;100313.28;5042364;28;20037;-74
2023/07/07 09:12:44;;;;;;;2.65;1.10;;;;;;;22.37;46.24;100312.44;5027546;28;20056;-74
2023/07/07 09:15:18;;;;;;;4.40;1.43;;;;;;;22.48;45.62;100312.84;5047065;28;21096;-74
2023/07/07 09:17:48;;;;;;;4.40;1.75;;;;;;;22.56;45.21;100312.00;5047107;28;20482;-72
2023/07/07 09:20:15;;;;;;;5.70;2.35;;;;;;;22.70;44.96;100306.25;5046230;28;20371;-72
2023/07/07 09:22:49;;;;;;;5.80;1.58;;;;;;;22.77;44.32;100307.69;5046717;28;20086;-73
2023/07/07 09:25:28;;;;;;;3.30;1.13;;;;;;;22.83;45.19;100309.13;5046583;28;20029;-73
2023/07/07 09:27:59;;;;;;;9.85;3.10;;;;;;;22.89;44.97;100302.25;5046218;28;20033;-73
2023/07/07 09:30:34;;;;;;;12.38;2.83;;;;;;;23.02;43.32;100311.50;5046699;28;20055;-73
2023/07/07 09:33:00;;;;;;;3.72;1.63;;;;;;;23.12;44.03;100310.28;5046481;28;20658;-73
2023/07/07 09:35:34;;;;;;;6.32;2.45;;;;;;;23.21;43.98;100308.25;5046018;28;20040;-72
2023/07/07 09:38:37;;;;;;;2.75;1.40;;;;;;;23.27;44.29;100310.84;5046404;28;20040;-72
2023/07/07 09:41:19;;;;;;;3.97;1.58;;;;;;;23.30;44.72;100304.59;5046494;28;20043;-72
2023/07/07 09:44:23;;;;;;;6.00;2.35;;;;;;;23.35;43.52;100301.59;5046565;28;20064;-73
2023/07/07 09:47:06;;;;;;;1.80;0.98;;;;;;;23.34;42.94;100294.41;5046037;28;20517;-73
2023/07/07 09:49:39;;;;;;;3.63;1.65;;;;;;;23.39;43.42;100296.97;5045690;28;20047;-72
2023/07/07 09:52:28;;;;;;;3.75;1.25;;;;;;;23.45;42.40;100294.84;5046478;28;20063;-73
2023/07/07 09:54:57;;;;;;;3.80;1.70;;;;;;;23.47;40.72;100297.28;5046535;28;20062;-73
2023/07/07 09:57:30;;;;;;;3.00;1.38;;;;;;;23.52;39.98;100305.41;5045516;28;20101;-72
2023/07/07 09:59:59;;;;;;;5.65;1.77;;;;;;;23.61;40.60;100302.56;5045367;28;20404;-74
2023/07/07 10:02:25;;;;;;;4.43;1.73;;;;;;;23.76;41.38;100301.09;5045563;28;20032;-72
2023/07/07 10:04:57;;;;;;;4.97;2.03;;;;;;;23.81;40.12;100294.53;5046291;28;20072;-72
2023/07/07 10:07:24;;;;;;;5.50;1.73;;;;;;;23.90;39.48;100300.81;5045520;28;20489;-72
2023/07/07 10:09:50;;;;;;;2.88;1.45;;;;;;;23.99;38.83;100297.94;5045303;28;20040;-73
2023/07/07 10:12:17;;;;;;;4.78;1.77;;;;;;;24.00;37.02;100297.59;5045646;28;20253;-72
2023/07/07 10:14:43;;;;;;;2.90;1.27;;;;;;;24.12;39.45;100296.00;5045430;28;20881;-72
2023/07/07 10:17:08;;;;;;;4.65;1.67;;;;;;;24.11;39.76;100292.41;5045825;28;20033;-72
2023/07/07 10:19:39;;;;;;;3.90;1.43;;;;;;;24.20;39.79;100295.09;5045135;28;20120;-72
2023/07/07 10:22:05;;;;;;;6.78;1.63;;;;;;;24.19;39.34;100292.63;5044638;28;20036;-73
2023/07/07 10:24:30;;;;;;;3.83;1.27;;;;;;;24.18;38.67;100293.81;5045354;28;20033;-74
2023/07/07 10:26:57;;;;;;;5.70;1.75;;;;;;;24.31;38.81;100294.66;5045448;28;20180;-75
2023/07/07 10:29:28;;;;;;;6.38;1.95;;;;;;;24.37;38.82;100288.53;5044707;28;20052;-74
2023/07/07 10:31:53;;;;;;;4.47;1.88;;;;;;;24.54;38.26;100288.63;5045701;28;20037;-75
2023/07/07 10:34:24;;;;;;;6.07;1.30;;;;;;;24.54;38.61;100283.88;5045115;28;20037;-74
2023/07/07 10:36:56;;;;;;;3.55;1.13;;;;;;;24.51;37.23;100292.94;5045327;28;20033;-74
2023/07/07 10:39:29;;;;;;;4.90;1.65;;;;;;;24.66;37.76;100294.22;5044516;28;20670;-75
2023/07/07 10:41:55;;;;;;;3.08;1.25;;;;;;;24.80;37.74;100288.28;5045617;28;20124;-76
2023/07/07 10:44:27;;;;;;;2.58;1.30;;;;;;;24.93;37.32;100286.31;5044623;28;20151;-74
2023/07/07 10:46:53;;;;;;;3.08;1.35;;;;;;;25.00;37.54;100279.38;5045248;28;20095;-75
2023/07/07 10:49:24;;;;;;;3.55;1.60;;;;;;;24.98;37.20;100271.31;5044872;28;20079;-76
2023/07/07 10:51:58;;;;;;;4.30;1.75;;;;;;;24.98;35.51;100276.13;5045265;28;20025;-76
2023/07/07 10:54:32;;;;;;;3.38;1.20;;;;;;;24.97;36.24;100275.28;5045003;28;20585;-76
2023/07/07 10:57:31;;;;;;;3.00;1.25;;;;;;;25.10;36.52;100283.63;5045060;28;20037;-74
2023/07/07 11:00:31;;;;;;;3.53;1.70;;;;;;;25.08;35.55;100266.44;5043774;28;20139;-75
2023/07/07 11:03:21;;;;;;;3.15;1.52;;;;;;;25.13;35.83;100264.22;5044805;28;20033;-76
2023/07/07 11:05:53;;;;;;;4.25;1.50;;;;;;;25.28;35.77;100268.22;5044581;28;20118;-75
2023/07/07 11:08:39;;;;;;;2.75;1.25;;;;;;;25.44;35.81;100270.28;5044262;28;20037;-76
2023/07/07 11:11:13;;;;;;;3.30;1.70;;;;;;;25.50;35.54;100268.88;5044980;28;20033;-75
2023/07/07 11:14:13;;;;;;;2.95;1.15;;;;;;;25.62;33.88;100258.81;5044631;28;20045;-75
2023/07/07 11:16:54;;;;;;;5.43;1.35;;;;;;;25.68;35.35;100263.00;5044570;28;20043;-76
2023/07/07 11:19:37;;;;;;;6.75;1.70;;;;;;;25.81;33.95;100262.94;5044178;28;20029;-75
2023/07/07 11:22:21;;;;;;;5.40;1.50;;;;;;;25.88;34.04;100260.31;5044645;28;20148;-77
2023/07/07 11:24:58;;;;;;;3.22;1.40;;;;;;;25.91;35.28;100261.59;5044146;28;20718;-74
2023/07/07 11:27:47;;;;;;;6.53;1.70;;;;;;;25.92;34.73;100252.84;5044367;28;20084;-75
2023/07/07 11:30:38;;;;;;;5.05;2.03;;;;;;;25.99;35.06;100255.03;5044086;28;20497;-76
2023/07/07 11:33:22;;;;;;;3.38;1.73;;;;;;;26.00;35.11;100257.44;5043257;28;20037;-76